Time;durP1;ratioP1;P1;durP2;ratioP2;P2;SDS_P1;SDS_P2;PMS_P1;PMS_P2;Temp;Humidity;BMP_temperature;BMP_pressure;BME280_temperature;BME280_humidity;BME280_pressure;Samples;Min_cycle;Max_cycle;Signal;HPM_P1;HPM_P2
2021/12/10 00:01:12;;;;;;;;;0.50;0.00;;;;;5.66;78.45;99044.78;4956902;28;45297;-78
2021/12/10 00:03:45;;;;;;;;;0.00;0.00;;;;;5.89;79.20;99084.44;4956849;28;45261;-77
2021/12/10 00:06:15;;;;;;;;;2.00;1.00;;;;;5.71;79.72;99052.69;4964346;28;45862;-78
2021/12/10 00:08:45;;;;;;;;;0.00;0.00;;;;;5.92;79.27;99068.75;4982550;28;45344;-77
2021/12/10 00:11:17;;;;;;;;;1.00;1.00;;;;;5.96;79.17;99062.72;4957034;28;45400;-78
2021/12/10 00:13:45;;;;;;;;;0.50;0.50;;;;;5.92;78.67;99058.28;4955539;28;48382;-77
2021/12/10 00:16:12;;;;;;;;;0.00;0.00;;;;;5.95;78.75;99045.22;4970384;28;45271;-77
2021/12/10 00:18:43;;;;;;;;;0.00;0.00;;;;;5.86;79.53;99020.59;4967528;28;45363;-77
2021/12/10 00:21:08;;;;;;;;;0.75;0.75;;;;;5.87;78.39;99004.00;4971713;28;45000;-77
2021/12/10 00:23:34;;;;;;;;;1.50;0.00;;;;;5.76;80.72;98972.38;4976085;28;45291;-77
2021/12/10 00:26:01;;;;;;;;;0.00;0.00;;;;;5.70;79.74;98952.22;4977638;28;45301;-76
2021/12/10 00:28:34;;;;;;;;;0.00;0.00;;;;;5.91;79.47;98943.78;4979516;28;45247;-76
2021/12/10 00:31:31;;;;;;;;;0.00;0.00;;;;;5.89;79.31;98955.97;4978883;28;45455;-77
2021/12/10 00:34:08;;;;;;;;;0.00;0.00;;;;;5.81;78.96;98947.13;4977870;28;48073;-76
2021/12/10 00:36:36;;;;;;;;;0.00;0.00;;;;;5.88;79.43;98992.63;4977687;28;45739;-77
2021/12/10 00:39:23;;;;;;;;;1.00;1.00;;;;;5.86;79.11;99000.50;4974924;28;45335;-76
2021/12/10 00:41:49;;;;;;;;;0.00;0.00;;;;;5.75;78.64;98963.66;5043221;28;47362;-77
2021/12/10 00:44:15;;;;;;;;;0.00;0.00;;;;;5.60;79.36;98925.00;4959190;28;47682;-76
2021/12/10 00:46:41;;;;;;;;;0.75;0.75;;;;;5.83;78.98;98938.41;5025872;28;45212;-77
2021/12/10 00:49:08;;;;;;;;;0.00;0.00;;;;;5.76;79.13;98919.94;4964912;27;45228;-76
2021/12/10 00:51:35;;;;;;;;;0.00;0.00;;;;;5.88;79.68;98938.50;4967378;28;45273;-77
2021/12/10 00:54:01;;;;;;;;;0.75;0.00;;;;;5.76;79.03;98901.59;4978194;28;45494;-76
2021/12/10 00:56:26;;;;;;;;;0.00;0.00;;;;;5.78;78.25;98907.75;4977570;28;45236;-77
2021/12/10 00:58:52;;;;;;;;;1.00;0.00;;;;;5.77;78.85;98891.16;4978504;28;45261;-76
2021/12/10 01:01:23;;;;;;;;;1.50;0.00;;;;;5.62;78.48;98843.75;4978862;28;45269;-78
2021/12/10 01:03:54;;;;;;;;;0.00;0.00;;;;;5.66;78.72;98840.34;4979014;28;45769;-77
2021/12/10 01:06:23;;;;;;;;;0.00;0.00;;;;;5.71;78.66;98837.75;4963922;28;45226;-77
2021/12/10 01:08:53;;;;;;;;;0.00;0.00;;;;;5.52;78.34;98797.34;4981570;28;45321;-78
2021/12/10 01:11:50;;;;;;;;;0.25;0.00;;;;;5.87;78.54;98873.78;4969233;28;46010;-77
2021/12/10 01:14:29;;;;;;;;;0.00;0.00;;;;;5.82;78.29;98834.41;4957568;28;48545;-78
2021/12/10 01:25:14;;;;;;;;;1.00;0.00;;;;;5.51;79.06;98777.22;4978743;28;45718;-77
2021/12/10 01:27:42;;;;;;;;;0.00;0.00;;;;;5.70;79.21;98797.56;4978460;28;45237;-76
2021/12/10 01:30:18;;;;;;;;;0.00;0.00;;;;;5.64;79.66;98789.63;4977761;28;45486;-80
2021/12/10 01:32:51;;;;;;;;;0.00;0.00;;;;;5.80;79.08;98823.03;4977016;28;46666;-76
2021/12/10 01:35:24;;;;;;;;;0.00;0.00;;;;;5.59;78.75;98778.22;4978073;28;46235;-76
2021/12/10 01:37:52;;;;;;;;;0.00;0.00;;;;;5.65;78.90;98767.78;4977467;28;45258;-77
2021/12/10 01:40:20;;;;;;;;;0.00;0.00;;;;;5.65;79.02;98777.41;4965883;28;45454;-77
2021/12/10 01:42:49;;;;;;;;;0.00;0.00;;;;;5.82;79.32;98789.84;4957613;28;46426;-76
2021/12/10 01:45:21;;;;;;;;;0.00;0.00;;;;;5.80;79.18;98796.81;4958357;28;45431;-76
2021/12/10 01:48:02;;;;;;;;;0.00;0.00;;;;;5.74;79.26;98761.75;5028241;28;45347;-76
2021/12/10 01:50:29;;;;;;;;;0.00;0.00;;;;;5.85;79.53;98794.22;4975563;28;45343;-77
2021/12/10 01:52:57;;;;;;;;;0.00;0.00;;;;;5.68;80.50;98780.06;4978246;28;45321;-77
2021/12/10 01:55:25;;;;;;;;;0.00;0.00;;;;;5.81;79.19;98795.06;4978105;28;45442;-77
2021/12/10 01:57:53;;;;;;;;;0.00;0.00;;;;;5.80;78.55;98791.56;4978275;28;45646;-77
2021/12/10 02:00:22;;;;;;;;;2.75;1.75;;;;;5.91;79.81;98788.16;4977873;28;45351;-77
2021/12/10 02:02:48;;;;;;;;;1.00;1.00;;;;;5.99;80.02;98797.03;4978122;28;45407;-77
2021/12/10 02:05:15;;;;;;;;;1.25;0.00;;;;;5.88;79.63;98764.53;4978027;28;45645;-77
2021/12/10 02:07:42;;;;;;;;;0.00;0.00;;;;;5.96;79.32;98774.25;4987418;28;45242;-76
2021/12/10 02:10:11;;;;;;;;;0.00;0.00;;;;;5.80;78.47;98731.28;4981900;28;45368;-77
2021/12/10 02:12:36;;;;;;;;;1.00;0.00;;;;;6.06;79.51;98772.63;4958374;28;45288;-76
2021/12/10 02:15:04;;;;;;;;;0.00;0.00;;;;;6.05;79.29;98768.25;4957965;28;45294;-77
2021/12/10 02:17:44;;;;;;;;;0.00;0.00;;;;;6.04;79.47;98758.63;4957391;28;46192;-76
2021/12/10 02:20:18;;;;;;;;;0.00;0.00;;;;;5.94;79.35;98733.19;4966631;28;45340;-77
2021/12/10 02:22:44;;;;;;;;;0.00;0.00;;;;;6.13;79.32;98750.81;4977801;28;45366;-77
2021/12/10 02:25:11;;;;;;;;;0.00;0.00;;;;;6.04;78.47;98728.00;4977884;28;46682;-77
2021/12/10 02:27:37;;;;;;;;;0.00;0.00;;;;;6.07;79.06;98732.41;4977595;28;45364;-77
2021/12/10 02:30:07;;;;;;;;;0.00;0.00;;;;;5.96;79.23;98708.72;4967204;28;45394;-76
2021/12/10 02:32:32;;;;;;;;;1.00;0.00;;;;;5.98;78.61;98714.84;4958382;28;45318;-77
2021/12/10 02:34:58;;;;;;;;;0.00;0.00;;;;;5.99;79.02;98693.03;4958187;28;45550;-77
2021/12/10 02:37:23;;;;;;;;;0.00;0.00;;;;;6.04;79.50;98704.41;4957950;28;45348;-77
2021/12/10 02:39:49;;;;;;;;;0.00;0.00;;;;;6.00;79.65;98688.66;4958443;28;45357;-77
2021/12/10 02:42:15;;;;;;;;;0.00;0.00;;;;;6.21;78.85;98715.03;4973635;28;45324;-77
2021/12/10 02:44:40;;;;;;;;;0.00;0.00;;;;;6.19;79.43;98706.31;4977511;28;45275;-77
2021/12/10 02:47:06;;;;;;;;;0.00;0.00;;;;;6.21;79.27;98711.53;5034554;28;45301;-77
2021/12/10 02:49:32;;;;;;;;;0.00;0.00;;;;;6.19;79.47;98705.41;4958519;28;45320;-76
2021/12/10 02:51:59;;;;;;;;;0.00;0.00;;;;;6.25;79.84;98713.34;4968948;28;46467;-77
2021/12/10 02:54:33;;;;;;;;;0.00;0.00;;;;;6.17;79.01;98687.03;4966754;28;45281;-77
2021/12/10 02:57:05;;;;;;;;;0.00;0.00;;;;;6.25;79.03;98694.97;4977391;28;45202;-77
2021/12/10 02:59:30;;;;;;;;;0.00;0.00;;;;;6.27;78.61;98699.38;4977645;28;45215;-77
2021/12/10 03:01:57;;;;;;;;;1.00;1.00;;;;;6.21;78.63;98688.81;4975808;28;46118;-77
2021/12/10 03:04:22;;;;;;;;;26.00;21.25;;;;;6.32;80.40;98709.00;4977307;28;45406;-76
2021/12/10 03:06:51;;;;;;;;;12.50;10.25;;;;;6.36;80.05;98697.66;4975909;28;45359;-76
2021/12/10 03:09:19;;;;;;;;;0.00;0.00;;;;;6.27;79.09;98683.63;4986684;28;45237;-76
2021/12/10 03:11:48;;;;;;;;;0.00;0.00;;;;;6.33;79.49;98688.03;4970629;28;46055;-76
2021/12/10 03:14:19;;;;;;;;;0.75;0.00;;;;;6.41;80.01;98709.06;4956126;28;48069;-76
2021/12/10 03:16:49;;;;;;;;;0.00;0.00;;;;;6.40;78.28;98699.44;4971230;28;45756;-76
2021/12/10 03:19:16;;;;;;;;;0.00;0.00;;;;;6.27;79.63;98669.63;4965799;28;45260;-76
2021/12/10 03:21:44;;;;;;;;;0.00;0.00;;;;;6.48;80.64;98710.88;4957624;28;45282;-76
2021/12/10 03:24:13;;;;;;;;;0.00;0.00;;;;;6.50;80.07;98696.91;4957543;28;45375;-76
2021/12/10 03:26:39;;;;;;;;;0.00;0.00;;;;;6.36;80.58;98674.03;4964255;28;45257;-76
2021/12/10 03:29:04;;;;;;;;;1.00;1.00;;;;;6.41;79.66;98675.84;4976762;28;45364;-76
2021/12/10 03:31:30;;;;;;;;;0.00;0.00;;;;;6.55;79.84;98704.78;4977006;28;45271;-76
2021/12/10 03:33:57;;;;;;;;;0.00;0.00;;;;;6.54;79.37;98700.41;4977036;28;46179;-76
2021/12/10 03:36:23;;;;;;;;;0.00;0.00;;;;;6.62;80.35;98709.22;4976871;28;45450;-76
2021/12/10 03:38:49;;;;;;;;;0.00;0.00;;;;;6.57;78.86;98696.94;4974672;28;45383;-77
2021/12/10 03:41:15;;;;;;;;;0.00;0.00;;;;;6.64;80.93;98709.25;4957485;28;45505;-76
2021/12/10 03:43:41;;;;;;;;;1.00;1.00;;;;;6.67;80.75;98709.25;4957162;28;45770;-77
2021/12/10 03:46:07;;;;;;;;;0.00;0.00;;;;;6.74;80.64;98713.66;4994894;28;45343;-77
2021/12/10 03:48:37;;;;;;;;;1.00;1.00;;;;;6.67;80.17;98698.75;5004624;28;45198;-76
2021/12/10 03:51:07;;;;;;;;;1.00;1.00;;;;;6.79;79.27;98713.72;4976758;28;45464;-76
2021/12/10 03:53:32;;;;;;;;;0.00;0.00;;;;;6.76;80.14;98709.31;4975094;28;47221;-77
2021/12/10 03:56:01;;;;;;;;;0.25;0.25;;;;;6.88;80.73;98727.75;4976621;28;45304;-77
2021/12/10 03:58:27;;;;;;;;;1.00;1.00;;;;;6.83;81.87;98710.22;4976811;28;46022;-77
2021/12/10 04:00:55;;;;;;;;;1.00;1.00;;;;;6.91;79.91;98714.63;4978823;28;45161;-77
2021/12/10 04:03:23;;;;;;;;;1.25;1.25;;;;;7.05;79.79;98721.72;4977967;28;47369;-77
2021/12/10 04:05:50;;;;;;;;;5.50;3.25;;;;;7.00;80.52;98705.03;4979466;28;45160;-76
2021/12/10 04:08:16;;;;;;;;;4.00;2.00;;;;;7.09;80.56;98718.25;4993424;28;45319;-76
2021/12/10 04:10:41;;;;;;;;;1.00;1.00;;;;;7.19;80.17;98720.03;4960037;28;45225;-77
2021/12/10 04:13:07;;;;;;;;;6.50;3.75;;;;;7.28;80.31;98727.97;4959913;28;45586;-77
2021/12/10 04:15:35;;;;;;;;;4.50;3.00;;;;;7.13;81.64;98693.72;4959787;28;45573;-77
2021/12/10 04:18:02;;;;;;;;;3.75;3.00;;;;;7.36;81.11;98713.06;4960081;28;45277;-77
2021/12/10 04:20:29;;;;;;;;;2.25;1.00;;;;;7.38;80.55;98715.72;4959844;28;45490;-77
2021/12/10 04:22:57;;;;;;;;;4.50;3.00;;;;;7.49;79.96;98727.16;4971511;28;47760;-77
2021/12/10 04:25:25;;;;;;;;;3.25;2.00;;;;;7.55;80.11;98718.41;4959820;28;45423;-76
2021/12/10 04:27:54;;;;;;;;;3.00;2.00;;;;;7.57;80.57;98722.78;4959703;28;45350;-77
2021/12/10 04:30:20;;;;;;;;;2.75;2.75;;;;;7.61;80.83;98716.66;4959456;28;45557;-77
2021/12/10 04:32:46;;;;;;;;;5.25;3.25;;;;;7.56;80.99;98701.75;4959433;28;45338;-77
2021/12/10 04:35:18;;;;;;;;;3.75;3.75;;;;;7.62;79.44;98709.69;4959740;28;45282;-77
2021/12/10 04:37:44;;;;;;;;;2.00;1.25;;;;;7.70;80.17;98721.09;4959638;28;45213;-77
2021/12/10 04:40:12;;;;;;;;;4.75;2.75;;;;;7.73;80.45;98722.81;4959524;28;45550;-77
2021/12/10 04:42:38;;;;;;;;;4.00;2.00;;;;;7.85;80.28;98742.16;4958042;28;45390;-77
2021/12/10 04:45:07;;;;;;;;;5.00;2.25;;;;;7.75;80.68;98718.44;4957960;28;45328;-77
2021/12/10 04:47:34;;;;;;;;;6.00;3.25;;;;;7.91;80.42;98743.03;5033340;28;45304;-77
2021/12/10 04:50:00;;;;;;;;;7.25;4.00;;;;;7.87;79.81;98730.75;4959465;28;45189;-77
2021/12/10 04:52:25;;;;;;;;;8.25;2.25;;;;;7.98;79.61;98740.44;4959099;28;45333;-77
2021/12/10 04:54:51;;;;;;;;;3.50;2.00;;;;;7.83;79.55;98706.19;4959590;28;45221;-77
2021/12/10 04:57:18;;;;;;;;;6.50;2.00;;;;;7.99;79.17;98717.63;4958277;28;45344;-77
2021/12/10 04:59:44;;;;;;;;;4.50;4.00;;;;;8.08;78.88;98744.81;4959108;28;45386;-77
2021/12/10 05:02:11;;;;;;;;;3.00;2.00;;;;;7.82;78.53;98696.56;4973246;28;48206;-77
2021/12/10 05:04:38;;;;;;;;;3.75;2.50;;;;;8.12;78.72;98737.78;4957953;28;45388;-77
2021/12/10 05:07:05;;;;;;;;;1.50;1.00;;;;;8.09;79.18;98735.16;4978270;28;45339;-77
2021/12/10 05:09:32;;;;;;;;;3.00;3.00;;;;;8.12;78.80;98745.69;4985859;28;46377;-77
2021/12/10 05:12:01;;;;;;;;;8.00;3.00;;;;;8.07;78.61;98743.06;4958883;28;45218;-76
2021/12/10 05:14:27;;;;;;;;;3.75;2.00;;;;;8.02;78.16;98744.81;4971946;28;45394;-77
2021/12/10 05:16:58;;;;;;;;;1.25;0.00;;;;;8.07;78.04;98764.13;4964459;28;45273;-77
2021/12/10 05:19:26;;;;;;;;;4.50;3.25;;;;;8.13;78.46;98768.50;4978511;28;45299;-77
2021/12/10 05:21:52;;;;;;;;;3.00;3.00;;;;;8.10;78.59;98765.88;4978543;28;45473;-77
2021/12/10 05:24:18;;;;;;;;;4.50;3.00;;;;;8.17;77.72;98800.97;4976986;28;45284;-77
2021/12/10 05:26:44;;;;;;;;;0.50;0.50;;;;;8.12;78.49;98795.66;4979014;28;45252;-77
2021/12/10 05:29:10;;;;;;;;;5.25;3.00;;;;;8.05;78.25;98771.13;4976786;28;46426;-77
2021/12/10 05:31:40;;;;;;;;;7.50;3.00;;;;;8.15;78.20;98795.72;4976754;28;47464;-77
2021/12/10 05:34:06;;;;;;;;;12.50;3.00;;;;;8.12;77.56;98794.81;4978366;28;45524;-77
2021/12/10 05:36:32;;;;;;;;;3.50;2.00;;;;;8.12;77.75;98794.81;4978416;28;45251;-77
2021/12/10 05:38:58;;;;;;;;;0.50;0.50;;;;;8.09;77.27;98795.66;4976991;28;47163;-76
2021/12/10 05:41:24;;;;;;;;;2.50;1.75;;;;;8.07;77.32;98803.56;4978228;28;46379;-77
2021/12/10 05:43:49;;;;;;;;;4.50;1.00;;;;;8.16;77.36;98813.25;4961526;28;45377;-77
2021/12/10 05:46:16;;;;;;;;;3.00;1.00;;;;;8.02;76.98;98800.06;5003253;28;45268;-76
2021/12/10 05:48:43;;;;;;;;;8.50;3.75;;;;;8.09;77.29;98808.81;4995954;28;46244;-77
2021/12/10 05:51:09;;;;;;;;;2.25;0.50;;;;;8.15;77.50;98829.91;4958690;28;46221;-77
2021/12/10 05:53:34;;;;;;;;;1.00;1.00;;;;;7.86;77.99;98790.38;4958467;28;45357;-77
2021/12/10 05:55:59;;;;;;;;;3.00;1.25;;;;;8.06;77.66;98827.25;4958827;28;45478;-77
2021/12/10 05:58:26;;;;;;;;;2.00;1.00;;;;;8.10;77.65;98828.16;4958552;28;45470;-76
2021/12/10 06:01:03;;;;;;;;;4.25;2.00;;;;;8.06;77.87;98840.41;4958265;28;45359;-77
2021/12/10 06:03:29;;;;;;;;;2.00;2.00;;;;;8.10;77.63;98843.94;4958433;28;45297;-76
2021/12/10 06:05:56;;;;;;;;;2.75;2.75;;;;;8.03;77.56;98862.31;4958854;28;44753;-77
2021/12/10 06:08:23;;;;;;;;;1.25;1.25;;;;;8.01;77.16;98850.94;4990600;28;46223;-78
2021/12/10 06:10:51;;;;;;;;;3.25;0.00;;;;;8.08;77.13;98864.97;4965859;28;47520;-77
2021/12/10 06:13:16;;;;;;;;;4.00;2.75;;;;;8.07;76.94;98869.38;4976042;28;45419;-76
2021/12/10 06:15:42;;;;;;;;;1.75;1.75;;;;;8.05;77.07;98873.72;4977901;28;45285;-78
2021/12/10 06:18:08;;;;;;;;;1.50;1.00;;;;;7.96;76.58;98862.31;4976501;28;45870;-77
2021/12/10 06:20:40;;;;;;;;;2.50;0.75;;;;;7.93;77.13;98876.34;4976630;28;47581;-77
2021/12/10 06:23:07;;;;;;;;;2.00;1.00;;;;;8.03;76.79;98871.97;4976889;28;45377;-77
2021/12/10 06:25:33;;;;;;;;;2.00;0.00;;;;;7.99;76.80;98873.72;4976671;28;45274;-77
2021/12/10 06:27:59;;;;;;;;;2.00;2.00;;;;;7.94;76.22;98870.19;4976211;28;46260;-77
2021/12/10 06:30:30;;;;;;;;;1.00;1.00;;;;;7.95;77.19;98873.69;4976210;28;46452;-77
2021/12/10 06:32:57;;;;;;;;;3.75;1.75;;;;;7.95;77.23;98886.84;4976497;28;46123;-77
2021/12/10 06:35:25;;;;;;;;;3.50;2.00;;;;;7.92;77.48;98878.94;4977961;28;45320;-76
2021/12/10 06:37:53;;;;;;;;;3.00;2.00;;;;;7.90;77.69;98893.81;4972879;28;47571;-77
2021/12/10 06:40:22;;;;;;;;;1.00;1.00;;;;;7.82;77.64;98888.56;4971105;28;45669;-78
2021/12/10 06:42:48;;;;;;;;;1.00;1.00;;;;;7.82;77.52;98893.81;4976299;28;45969;-78
2021/12/10 06:45:16;;;;;;;;;5.75;2.00;;;;;7.84;78.13;98910.47;4977412;28;45186;-77
2021/12/10 06:47:47;;;;;;;;;1.75;1.75;;;;;7.85;78.12;98902.59;5031044;28;45497;-77
2021/12/10 06:50:16;;;;;;;;;4.25;1.25;;;;;7.79;78.25;98926.25;4957875;28;45570;-78
2021/12/10 06:52:41;;;;;;;;;3.25;1.00;;;;;7.88;77.93;98945.56;4956660;28;45182;-78
2021/12/10 06:55:07;;;;;;;;;3.75;2.00;;;;;7.75;77.94;98934.09;4958050;28;45205;-78
2021/12/10 06:57:34;;;;;;;;;1.00;1.00;;;;;7.63;77.39;98922.63;4961527;28;47087;-78
2021/12/10 07:00:00;;;;;;;;;2.00;1.00;;;;;7.54;77.07;98922.59;4957862;28;47093;-77
2021/12/10 07:02:26;;;;;;;;;0.25;0.25;;;;;7.80;77.25;98967.44;4977461;28;45378;-77
2021/12/10 07:04:51;;;;;;;;;0.25;0.25;;;;;7.65;77.76;98963.88;4977602;28;45323;-77
2021/12/10 07:07:17;;;;;;;;;1.50;1.00;;;;;7.69;77.52;98986.66;4967566;28;46063;-76
2021/12/10 07:09:42;;;;;;;;;4.00;1.00;;;;;7.70;77.06;98996.31;4980109;28;45371;-77
2021/12/10 07:12:08;;;;;;;;;0.00;0.00;;;;;7.72;77.81;98997.19;4961670;28;45173;-77
2021/12/10 07:14:34;;;;;;;;;0.75;0.00;;;;;7.69;76.55;99008.56;4957862;28;45335;-77
2021/12/10 07:16:59;;;;;;;;;1.75;0.25;;;;;7.56;76.95;98997.09;4957961;28;45484;-77
2021/12/10 07:19:28;;;;;;;;;1.75;1.00;;;;;7.67;76.92;99018.19;4967745;28;46969;-77
2021/12/10 07:21:54;;;;;;;;;3.00;1.00;;;;;7.51;75.93;99009.34;4957798;28;45403;-77
2021/12/10 07:24:21;;;;;;;;;1.50;0.25;;;;;7.58;75.79;99013.75;4957535;28;45470;-76
2021/12/10 07:26:47;;;;;;;;;0.00;0.00;;;;;7.49;75.08;99021.56;4957765;28;45450;-77
2021/12/10 07:29:13;;;;;;;;;0.25;0.25;;;;;7.59;75.43;99039.19;4957320;28;45393;-77
2021/12/10 07:31:42;;;;;;;;;1.00;0.00;;;;;7.55;75.93;99055.78;4957674;28;45183;-77
2021/12/10 07:34:07;;;;;;;;;0.00;0.00;;;;;7.34;75.69;99040.75;4958162;28;45368;-77
2021/12/10 07:36:34;;;;;;;;;0.00;0.00;;;;;7.40;75.12;99055.69;4960312;28;45187;-76
2021/12/10 07:39:00;;;;;;;;;2.00;0.00;;;;;7.43;75.20;99087.25;4971287;28;47335;-77
2021/12/10 07:41:26;;;;;;;;;0.00;0.00;;;;;7.36;74.62;99090.66;4968119;28;45327;-77
2021/12/10 07:43:52;;;;;;;;;0.00;0.00;;;;;7.36;74.04;99081.03;4979951;28;45441;-77
2021/12/10 07:46:18;;;;;;;;;1.00;0.00;;;;;7.31;73.86;99081.84;5018277;28;46203;-77
2021/12/10 07:48:44;;;;;;;;;0.50;0.00;;;;;7.34;73.72;99093.31;4998181;28;47209;-77
2021/12/10 07:51:15;;;;;;;;;0.00;0.00;;;;;7.13;73.04;99061.53;4959198;28;45269;-77
2021/12/10 07:53:43;;;;;;;;;1.75;0.50;;;;;7.28;73.63;99101.13;4960351;28;45409;-76
2021/12/10 07:56:10;;;;;;;;;1.00;0.00;;;;;7.29;73.46;99112.53;4958868;28;46027;-77
2021/12/10 07:58:40;;;;;;;;;0.75;0.75;;;;;7.12;72.77;99092.19;4959787;28;45561;-76
2021/12/10 08:01:09;;;;;;;;;0.00;0.00;;;;;7.17;72.69;99106.28;4960438;28;45320;-77
2021/12/10 08:03:34;;;;;;;;;0.00;0.00;;;;;7.16;72.38;99107.13;4972847;28;45244;-77
2021/12/10 08:06:00;;;;;;;;;1.00;0.00;;;;;7.15;73.07;99120.25;4958632;28;47035;-77
2021/12/10 08:08:25;;;;;;;;;1.75;1.75;;;;;7.04;73.52;99112.25;4983411;28;45383;-77
2021/12/10 08:10:51;;;;;;;;;1.00;1.00;;;;;7.11;73.39;99140.38;4960192;28;45210;-76
2021/12/10 08:13:21;;;;;;;;;3.00;0.25;;;;;7.17;73.59;99152.69;4958819;28;45205;-77
2021/12/10 08:15:47;;;;;;;;;0.00;0.00;;;;;7.14;73.54;99165.78;4959870;28;46153;-77
2021/12/10 08:18:12;;;;;;;;;1.50;1.00;;;;;7.07;73.08;99161.31;4959765;28;45250;-76
2021/12/10 08:20:38;;;;;;;;;2.50;0.00;;;;;6.97;72.22;99155.06;4959806;28;45349;-77
2021/12/10 08:23:04;;;;;;;;;1.00;0.00;;;;;6.94;72.30;99157.66;4960071;28;45334;-77
2021/12/10 08:25:30;;;;;;;;;0.00;0.00;;;;;7.02;72.11;99186.66;4959749;28;45569;-76
2021/12/10 08:27:57;;;;;;;;;1.50;0.00;;;;;7.05;72.02;99198.06;4959384;28;45652;-76
2021/12/10 08:30:25;;;;;;;;;1.00;1.00;;;;;6.85;72.13;99168.94;4958220;28;45251;-75
2021/12/10 08:32:53;;;;;;;;;0.00;0.00;;;;;6.97;72.13;99191.84;4959983;28;45340;-77
2021/12/10 08:35:20;;;;;;;;;1.00;0.00;;;;;7.02;71.89;99219.06;4959652;28;45352;-76
2021/12/10 08:37:46;;;;;;;;;0.00;0.00;;;;;6.86;72.08;99194.34;4959219;28;46596;-77
2021/12/10 08:40:17;;;;;;;;;0.25;0.00;;;;;6.93;71.45;99219.81;4959738;28;45237;-76
2021/12/10 08:42:43;;;;;;;;;1.25;1.00;;;;;6.85;71.69;99213.56;4979240;28;45302;-76
2021/12/10 08:45:09;;;;;;;;;0.00;0.00;;;;;6.84;71.70;99227.56;4977079;28;46040;-77
2021/12/10 08:47:35;;;;;;;;;0.00;0.00;;;;;6.77;71.45;99216.97;4971726;28;45449;-76
2021/12/10 08:50:03;;;;;;;;;1.00;0.00;;;;;6.82;72.30;99238.91;4968569;28;45399;-77
2021/12/10 08:52:28;;;;;;;;;2.00;0.00;;;;;6.83;71.90;99252.06;4973440;28;45273;-77
2021/12/10 08:54:53;;;;;;;;;0.50;0.50;;;;;6.77;71.74;99248.47;4959368;28;45542;-77
2021/12/10 08:57:19;;;;;;;;;2.00;0.00;;;;;6.74;72.26;99244.06;4959425;28;46684;-76
2021/12/10 08:59:44;;;;;;;;;1.00;0.00;;;;;6.75;72.29;99252.81;4959047;28;45265;-76
2021/12/10 09:02:13;;;;;;;;;1.00;0.00;;;;;6.79;72.50;99266.00;4959399;28;45336;-76
2021/12/10 09:04:39;;;;;;;;;0.25;0.25;;;;;6.61;72.78;99248.25;4959184;28;46508;-76
2021/12/10 09:07:08;;;;;;;;;0.25;0.25;;;;;6.72;73.32;99267.69;4957672;28;48583;-76
2021/12/10 09:09:35;;;;;;;;;0.25;0.00;;;;;6.66;73.23;99258.81;4979331;28;45240;-78
2021/12/10 09:12:05;;;;;;;;;1.00;1.00;;;;;6.78;72.46;99281.72;4959344;28;45352;-77
2021/12/10 09:14:39;;;;;;;;;0.50;0.50;;;;;6.82;72.90;99287.06;4973228;28;46179;-77
2021/12/10 09:17:06;;;;;;;;;1.25;0.00;;;;;6.72;73.26;99258.91;4977831;28;45457;-77
2021/12/10 09:19:32;;;;;;;;;1.75;1.75;;;;;6.83;72.32;99285.31;4978153;28;45232;-77
2021/12/10 09:21:57;;;;;;;;;1.50;1.50;;;;;6.83;72.48;99277.44;4978378;28;45387;-77
2021/12/10 09:24:24;;;;;;;;;0.75;0.75;;;;;6.86;73.37;99294.16;4978198;28;45472;-77
2021/12/10 09:26:55;;;;;;;;;2.25;1.00;;;;;6.87;72.79;99293.28;4978438;28;46310;-76
2021/12/10 09:29:21;;;;;;;;;2.75;1.00;;;;;6.95;73.26;99302.16;4977841;28;44624;-77
2021/12/10 09:31:47;;;;;;;;;2.50;2.00;;;;;6.93;72.78;99290.72;4978185;28;45247;-77
2021/12/10 09:34:15;;;;;;;;;3.00;2.00;;;;;7.04;73.46;99322.41;4978129;28;45183;-77
2021/12/10 09:36:43;;;;;;;;;0.75;0.75;;;;;7.09;73.00;99330.38;4969067;28;45692;-76
2021/12/10 09:39:10;;;;;;;;;2.00;2.00;;;;;7.02;72.33;99315.38;4964920;28;45521;-76
2021/12/10 09:41:36;;;;;;;;;1.00;1.00;;;;;7.09;71.83;99339.13;4973126;28;45373;-77
2021/12/10 09:44:03;;;;;;;;;2.00;2.00;;;;;7.08;72.32;99326.84;4972877;28;45454;-76
2021/12/10 09:46:29;;;;;;;;;2.75;2.75;;;;;7.00;71.69;99330.22;5014098;28;46488;-76
2021/12/10 09:48:54;;;;;;;;;2.00;0.50;;;;;7.15;71.77;99341.84;4980045;27;45379;-76
2021/12/10 09:51:30;;;;;;;;;3.00;2.00;;;;;7.25;72.19;99361.25;4973973;28;45505;-76
2021/12/10 09:53:59;;;;;;;;;4.00;1.50;;;;;7.33;71.47;99364.88;4976446;28;47533;-76
2021/12/10 09:56:25;;;;;;;;;3.00;2.00;;;;;7.31;71.27;99348.22;4958558;28;47506;-76
2021/12/10 09:58:53;;;;;;;;;2.00;0.00;;;;;7.28;71.53;99344.63;4974198;28;45197;-76
2021/12/10 10:01:44;;;;;;;;;9.00;2.00;;;;;7.50;70.84;99377.38;4976480;28;44727;-76
2021/12/10 10:04:14;;;;;;;;;3.75;2.25;;;;;7.55;70.41;99379.19;4958386;28;45474;-76
2021/12/10 10:06:47;;;;;;;;;6.75;1.00;;;;;7.63;69.96;99395.97;4958114;28;46748;-77
2021/12/10 10:09:17;;;;;;;;;1.00;1.00;;;;;7.45;69.90;99379.03;4995001;28;45257;-77
2021/12/10 10:11:48;;;;;;;;;3.25;0.00;;;;;7.48;69.60;99398.41;4958210;28;45344;-77
2021/12/10 10:14:14;;;;;;;;;1.00;1.00;;;;;7.32;70.04;99388.53;4964624;28;45387;-76
2021/12/10 10:16:44;;;;;;;;;15.50;13.75;;;;;7.21;69.99;99401.50;4963095;28;45801;-72
2021/12/10 10:19:11;;;;;;;;;1.50;1.00;;;;;7.20;70.57;99399.75;4957064;28;45415;-72
2021/12/10 10:21:43;;;;;;;;;1.25;1.00;;;;;7.24;70.53;99417.31;4958046;28;45273;-73
2021/12/10 10:24:09;;;;;;;;;4.00;3.00;;;;;7.29;71.02;99399.88;4978320;28;45439;-73
2021/12/10 10:26:48;;;;;;;;;2.75;2.00;;;;;7.38;70.66;99412.25;4958584;28;46370;-72
2021/12/10 10:29:18;;;;;;;;;4.00;1.00;;;;;7.59;69.60;99423.09;4957864;28;45233;-72
2021/12/10 10:31:52;;;;;;;;;1.25;1.00;;;;;7.49;68.99;99405.41;4958361;28;45263;-73
2021/12/10 10:34:19;;;;;;;;;0.00;0.00;;;;;7.60;68.79;99423.97;4969288;28;46036;-74
2021/12/10 10:36:45;;;;;;;;;9.00;9.00;;;;;7.67;69.25;99431.06;4962794;28;47499;-76
2021/12/10 10:39:23;;;;;;;;;3.50;3.25;;;;;7.65;68.44;99434.56;4971650;28;44686;-76
2021/12/10 10:41:55;;;;;;;;;5.00;4.00;;;;;7.64;68.15;99438.91;4968968;28;45314;-77
2021/12/10 10:44:23;;;;;;;;;4.25;2.75;;;;;7.72;67.66;99453.06;4969330;28;46525;-76
2021/12/10 10:46:49;;;;;;;;;3.00;2.00;;;;;7.74;67.57;99429.44;5037794;28;45481;-76
2021/12/10 10:49:33;;;;;;;;;10.00;6.75;;;;;7.84;67.32;99450.63;4957869;28;45345;-76
2021/12/10 10:52:19;;;;;;;;;3.00;0.00;;;;;7.73;66.47;99433.81;4956723;28;45254;-76
2021/12/10 10:54:47;;;;;;;;;3.75;3.00;;;;;7.82;66.34;99457.59;4957763;28;45273;-76
2021/12/10 10:57:17;;;;;;;;;3.75;2.75;;;;;7.73;65.53;99435.53;4957400;28;45290;-76
2021/12/10 10:59:43;;;;;;;;;3.75;2.25;;;;;7.84;65.84;99454.97;4957686;28;45394;-76
2021/12/10 11:02:11;;;;;;;;;6.50;6.25;;;;;7.80;66.37;99450.53;4964496;28;45215;-76
2021/12/10 11:04:49;;;;;;;;;2.25;2.00;;;;;7.87;64.85;99452.41;4976460;28;45441;-75
2021/12/10 11:07:26;;;;;;;;;2.50;2.00;;;;;7.97;65.06;99469.19;4966685;28;46078;-76
2021/12/10 11:10:03;;;;;;;;;5.00;2.50;;;;;7.80;64.47;99450.53;4977731;28;45278;-75
2021/12/10 11:12:35;;;;;;;;;3.50;1.00;;;;;7.91;63.56;99480.50;4963254;28;45233;-75
2021/12/10 11:15:06;;;;;;;;;3.50;2.75;;;;;7.87;63.59;99473.47;5049821;27;47449;-75
2021/12/10 11:17:35;;;;;;;;;7.50;6.75;;;;;7.88;64.40;99467.31;4967690;28;45349;-75
2021/12/10 11:20:10;;;;;;;;;2.75;2.75;;;;;7.97;63.46;99491.13;4962865;28;45396;-75
2021/12/10 11:22:49;;;;;;;;;6.00;6.00;;;;;7.97;63.27;99480.59;4963916;28;45360;-75
2021/12/10 11:25:28;;;;;;;;;2.25;2.25;;;;;7.88;63.73;99458.56;4967077;28;46498;-75
2021/12/10 11:28:04;;;;;;;;;1.50;1.00;;;;;8.01;63.89;99497.28;4963942;28;47246;-74
2021/12/10 11:30:30;;;;;;;;;7.25;6.00;;;;;8.05;62.62;99497.38;4966168;28;45357;-75
2021/12/10 11:33:04;;;;;;;;;3.75;3.00;;;;;8.06;62.28;99506.13;4968311;28;45351;-75
2021/12/10 11:35:45;;;;;;;;;10.50;7.75;;;;;8.08;62.69;99531.63;4971280;28;45454;-75
2021/12/10 11:38:22;;;;;;;;;4.50;3.00;;;;;8.09;62.27;99508.81;4974926;28;47169;-75
2021/12/10 11:40:52;;;;;;;;;10.25;7.75;;;;;7.99;62.25;99497.28;4959757;28;45281;-74
2021/12/10 11:43:33;;;;;;;;;8.25;8.00;;;;;8.12;62.47;99518.50;4955781;28;45297;-74
2021/12/10 11:49:24;;;;;;;;;8.00;7.00;;;;;8.19;61.66;99523.88;4982901;27;45410;-74
2021/12/10 11:52:15;;;;;;;;;6.00;3.00;;;;;8.18;61.11;99531.75;4951886;28;45312;-75
2021/12/10 11:54:45;;;;;;;;;5.00;5.00;;;;;7.92;59.98;99508.59;4967122;28;45405;-75
2021/12/10 11:57:24;;;;;;;;;11.25;2.00;;;;;8.13;60.48;99542.22;4956909;28;45527;-74
2021/12/10 11:59:55;;;;;;;;;8.00;5.50;;;;;8.02;60.45;99533.28;4965146;28;47389;-74